KCGI/CGI METAR and TAF weather

Enter ICAO airport designator
Station Type Date Time Source
KCGI METAR 2021/01/27 12:53 UTC NOAA

KCGI 271253Z 03008KT 10SM OVC022 01/M03 A3019 RMK AO2 SLP225 T00111028


Station Type Date Time Source
KCGI Decoded METAR 2021/01/27 12:53 UTC NOAA

CAPE GIRARDEAU REGIONAL, MO, United States (KCGI) 37-14N 089-35W 102M
Jan 27, 2021 - 07:53 AM EST / 2021.01.27 1253 UTC
Wind: from the NNE (030 degrees) at 9 MPH (8 KT):0
Visibility: 10 mile(s):0
Sky conditions: overcast
Temperature: 34.0 F (1.1 C)
Windchill: 26 F (-3 C):1
Dew Point: 27.0 F (-2.8 C)
Relative Humidity: 75%
Pressure (altimeter): 30.19 in. Hg (1022 hPa)
ob: KCGI 271253Z 03008KT 10SM OVC022 01/M03 A3019 RMK AO2 SLP225 T00111028
cycle: 13

Station Type Date Time Source
KCGI TAF 2021/01/27 12:22 UTC NOAA

TAF KCGI 271120Z 2712/2812 02008KT P6SM OVC020
FM271400 02008KT P6SM OVC015
FM271600 35008KT 5SM -SN OVC012
TEMPO 2716/2719 1SM -SN
FM272000 35011KT P6SM OVC015
FM280000 35010KT P6SM BKN020
FM280600 36009KT P6SM SCT030

Example: see airport list